sensor_id;sensor_type;location;lat;lon;timestamp;P1;durP1;ratioP1;P2;durP2;ratioP2
25846;SDS011;13676;50.168;8.568;2024-03-06T00:02:10;4.57;;;3.20;;
25846;SDS011;13676;50.168;8.568;2024-03-06T00:04:36;10.07;;;2.80;;
25846;SDS011;13676;50.168;8.568;2024-03-06T00:07:02;3.15;;;2.50;;
25846;SDS011;13676;50.168;8.568;2024-03-06T00:09:28;6.65;;;2.80;;
25846;SDS011;13676;50.168;8.568;2024-03-06T00:11:55;5.40;;;3.03;;
25846;SDS011;13676;50.168;8.568;2024-03-06T00:14:22;4.07;;;3.10;;
25846;SDS011;13676;50.168;8.568;2024-03-06T00:16:49;4.85;;;2.97;;
25846;SDS011;13676;50.168;8.568;2024-03-06T00:19:19;5.03;;;3.17;;
25846;SDS011;13676;50.168;8.568;2024-03-06T00:21:45;3.97;;;2.80;;
25846;SDS011;13676;50.168;8.568;2024-03-06T00:24:11;4.68;;;2.97;;
25846;SDS011;13676;50.168;8.568;2024-03-06T00:26:39;4.67;;;2.80;;
25846;SDS011;13676;50.168;8.568;2024-03-06T00:29:13;4.78;;;3.05;;
25846;SDS011;13676;50.168;8.568;2024-03-06T00:31:42;4.70;;;2.65;;
25846;SDS011;13676;50.168;8.568;2024-03-06T00:34:09;4.32;;;2.60;;
25846;SDS011;13676;50.168;8.568;2024-03-06T00:36:37;3.47;;;2.55;;
25846;SDS011;13676;50.168;8.568;2024-03-06T00:39:03;4.60;;;2.42;;
25846;SDS011;13676;50.168;8.568;2024-03-06T00:41:31;4.10;;;2.78;;
25846;SDS011;13676;50.168;8.568;2024-03-06T00:43:56;4.18;;;2.63;;
25846;SDS011;13676;50.168;8.568;2024-03-06T00:46:23;4.90;;;2.28;;
25846;SDS011;13676;50.168;8.568;2024-03-06T00:48:48;3.17;;;1.90;;
25846;SDS011;13676;50.168;8.568;2024-03-06T00:51:16;2.13;;;1.60;;
25846;SDS011;13676;50.168;8.568;2024-03-06T00:53:44;4.55;;;1.80;;
25846;SDS011;13676;50.168;8.568;2024-03-06T00:56:12;3.65;;;2.03;;
25846;SDS011;13676;50.168;8.568;2024-03-06T00:58:38;2.67;;;1.90;;
25846;SDS011;13676;50.168;8.568;2024-03-06T01:01:04;6.65;;;1.80;;
25846;SDS011;13676;50.168;8.568;2024-03-06T01:03:29;2.83;;;1.70;;
25846;SDS011;13676;50.168;8.568;2024-03-06T01:05:55;3.13;;;2.20;;
25846;SDS011;13676;50.168;8.568;2024-03-06T01:08:23;3.78;;;1.83;;
25846;SDS011;13676;50.168;8.568;2024-03-06T01:10:50;2.25;;;2.03;;
25846;SDS011;13676;50.168;8.568;2024-03-06T01:13:17;2.92;;;1.92;;
25846;SDS011;13676;50.168;8.568;2024-03-06T01:15:44;2.83;;;2.00;;
25846;SDS011;13676;50.168;8.568;2024-03-06T01:18:10;2.92;;;2.13;;
25846;SDS011;13676;50.168;8.568;2024-03-06T01:20:35;3.28;;;2.13;;
25846;SDS011;13676;50.168;8.568;2024-03-06T01:23:01;2.90;;;2.13;;
25846;SDS011;13676;50.168;8.568;2024-03-06T01:25:27;2.45;;;1.95;;
25846;SDS011;13676;50.168;8.568;2024-03-06T01:27:53;2.72;;;2.10;;
25846;SDS011;13676;50.168;8.568;2024-03-06T01:30:19;2.85;;;2.20;;
25846;SDS011;13676;50.168;8.568;2024-03-06T01:32:45;2.10;;;1.88;;
25846;SDS011;13676;50.168;8.568;2024-03-06T01:35:12;2.40;;;2.03;;
25846;SDS011;13676;50.168;8.568;2024-03-06T01:37:37;6.25;;;2.55;;
25846;SDS011;13676;50.168;8.568;2024-03-06T01:40:03;3.95;;;2.63;;
25846;SDS011;13676;50.168;8.568;2024-03-06T01:42:29;5.00;;;2.40;;
25846;SDS011;13676;50.168;8.568;2024-03-06T01:44:56;4.57;;;2.93;;
25846;SDS011;13676;50.168;8.568;2024-03-06T01:47:21;3.47;;;2.80;;
25846;SDS011;13676;50.168;8.568;2024-03-06T01:49:47;4.00;;;2.83;;
25846;SDS011;13676;50.168;8.568;2024-03-06T01:52:13;5.03;;;2.92;;
25846;SDS011;13676;50.168;8.568;2024-03-06T01:54:40;3.65;;;3.10;;
25846;SDS011;13676;50.168;8.568;2024-03-06T01:57:06;3.70;;;2.72;;
25846;SDS011;13676;50.168;8.568;2024-03-06T01:59:33;7.28;;;2.92;;
25846;SDS011;13676;50.168;8.568;2024-03-06T02:02:01;6.17;;;2.90;;
25846;SDS011;13676;50.168;8.568;2024-03-06T02:06:53;5.20;;;3.38;;
25846;SDS011;13676;50.168;8.568;2024-03-06T02:09:19;5.38;;;3.63;;
25846;SDS011;13676;50.168;8.568;2024-03-06T02:11:44;3.67;;;2.67;;
25846;SDS011;13676;50.168;8.568;2024-03-06T02:14:10;3.75;;;3.20;;
25846;SDS011;13676;50.168;8.568;2024-03-06T02:16:36;7.72;;;3.20;;
25846;SDS011;13676;50.168;8.568;2024-03-06T02:19:04;3.45;;;2.83;;
25846;SDS011;13676;50.168;8.568;2024-03-06T02:21:30;5.53;;;3.03;;
25846;SDS011;13676;50.168;8.568;2024-03-06T02:23:58;4.82;;;3.20;;
25846;SDS011;13676;50.168;8.568;2024-03-06T02:26:23;5.13;;;3.13;;
25846;SDS011;13676;50.168;8.568;2024-03-06T02:28:49;4.35;;;2.88;;
25846;SDS011;13676;50.168;8.568;2024-03-06T02:31:16;4.40;;;3.30;;
25846;SDS011;13676;50.168;8.568;2024-03-06T02:33:45;5.32;;;3.08;;
25846;SDS011;13676;50.168;8.568;2024-03-06T02:36:15;4.00;;;3.47;;
25846;SDS011;13676;50.168;8.568;2024-03-06T02:38:44;5.10;;;3.70;;
25846;SDS011;13676;50.168;8.568;2024-03-06T02:41:11;6.18;;;3.80;;
25846;SDS011;13676;50.168;8.568;2024-03-06T02:43:36;4.28;;;3.42;;
25846;SDS011;13676;50.168;8.568;2024-03-06T02:46:02;6.05;;;4.32;;
25846;SDS011;13676;50.168;8.568;2024-03-06T02:48:28;4.90;;;3.55;;
25846;SDS011;13676;50.168;8.568;2024-03-06T02:50:54;5.30;;;4.32;;
25846;SDS011;13676;50.168;8.568;2024-03-06T02:53:19;4.32;;;3.90;;
25846;SDS011;13676;50.168;8.568;2024-03-06T02:55:45;7.47;;;4.57;;
25846;SDS011;13676;50.168;8.568;2024-03-06T02:58:10;7.68;;;4.53;;
25846;SDS011;13676;50.168;8.568;2024-03-06T03:00:35;6.15;;;4.35;;
25846;SDS011;13676;50.168;8.568;2024-03-06T03:03:01;5.50;;;3.90;;
25846;SDS011;13676;50.168;8.568;2024-03-06T03:05:26;9.57;;;4.93;;
25846;SDS011;13676;50.168;8.568;2024-03-06T03:07:52;9.15;;;5.03;;
25846;SDS011;13676;50.168;8.568;2024-03-06T03:10:18;7.35;;;5.25;;
25846;SDS011;13676;50.168;8.568;2024-03-06T03:12:46;6.43;;;4.60;;
25846;SDS011;13676;50.168;8.568;2024-03-06T03:15:11;6.72;;;4.68;;
25846;SDS011;13676;50.168;8.568;2024-03-06T03:17:37;6.85;;;4.60;;
25846;SDS011;13676;50.168;8.568;2024-03-06T03:20:03;6.05;;;4.45;;
25846;SDS011;13676;50.168;8.568;2024-03-06T03:22:41;9.32;;;4.63;;
25846;SDS011;13676;50.168;8.568;2024-03-06T03:25:08;5.10;;;4.03;;
25846;SDS011;13676;50.168;8.568;2024-03-06T03:27:39;4.75;;;3.40;;
25846;SDS011;13676;50.168;8.568;2024-03-06T03:30:12;5.22;;;3.70;;
25846;SDS011;13676;50.168;8.568;2024-03-06T03:32:38;7.07;;;3.42;;
25846;SDS011;13676;50.168;8.568;2024-03-06T03:35:05;4.85;;;3.33;;
25846;SDS011;13676;50.168;8.568;2024-03-06T03:37:32;3.60;;;3.23;;
25846;SDS011;13676;50.168;8.568;2024-03-06T03:39:58;4.68;;;3.58;;
25846;SDS011;13676;50.168;8.568;2024-03-06T03:42:25;5.60;;;3.50;;
25846;SDS011;13676;50.168;8.568;2024-03-06T03:44:50;4.68;;;3.30;;
25846;SDS011;13676;50.168;8.568;2024-03-06T03:47:17;4.80;;;3.83;;
25846;SDS011;13676;50.168;8.568;2024-03-06T03:49:43;4.30;;;3.25;;
25846;SDS011;13676;50.168;8.568;2024-03-06T03:52:09;4.22;;;3.47;;
25846;SDS011;13676;50.168;8.568;2024-03-06T03:54:35;5.43;;;3.80;;
25846;SDS011;13676;50.168;8.568;2024-03-06T03:57:00;5.97;;;3.58;;
25846;SDS011;13676;50.168;8.568;2024-03-06T03:59:26;5.10;;;3.50;;
25846;SDS011;13676;50.168;8.568;2024-03-06T04:01:52;4.43;;;3.40;;
25846;SDS011;13676;50.168;8.568;2024-03-06T04:04:17;5.13;;;4.30;;
25846;SDS011;13676;50.168;8.568;2024-03-06T04:06:42;6.38;;;4.22;;
25846;SDS011;13676;50.168;8.568;2024-03-06T04:09:08;5.35;;;3.70;;
25846;SDS011;13676;50.168;8.568;2024-03-06T04:11:37;4.93;;;3.97;;
25846;SDS011;13676;50.168;8.568;2024-03-06T04:14:03;5.72;;;4.45;;
25846;SDS011;13676;50.168;8.568;2024-03-06T04:16:29;6.00;;;4.60;;
25846;SDS011;13676;50.168;8.568;2024-03-06T04:18:54;6.55;;;4.80;;
25846;SDS011;13676;50.168;8.568;2024-03-06T04:21:19;6.03;;;4.28;;
25846;SDS011;13676;50.168;8.568;2024-03-06T04:26:13;7.07;;;4.55;;
25846;SDS011;13676;50.168;8.568;2024-03-06T04:28:39;8.90;;;5.45;;
25846;SDS011;13676;50.168;8.568;2024-03-06T04:31:06;6.85;;;4.45;;
25846;SDS011;13676;50.168;8.568;2024-03-06T04:33:32;6.47;;;5.43;;
25846;SDS011;13676;50.168;8.568;2024-03-06T04:35:58;8.57;;;4.70;;
25846;SDS011;13676;50.168;8.568;2024-03-06T04:38:23;5.50;;;4.57;;
25846;SDS011;13676;50.168;8.568;2024-03-06T04:40:48;8.23;;;5.32;;
25846;SDS011;13676;50.168;8.568;2024-03-06T04:43:14;6.68;;;4.60;;
25846;SDS011;13676;50.168;8.568;2024-03-06T04:45:39;6.55;;;4.65;;
25846;SDS011;13676;50.168;8.568;2024-03-06T04:48:05;6.65;;;4.55;;
25846;SDS011;13676;50.168;8.568;2024-03-06T04:50:32;5.88;;;4.53;;
25846;SDS011;13676;50.168;8.568;2024-03-06T04:52:57;5.82;;;4.03;;
25846;SDS011;13676;50.168;8.568;2024-03-06T04:55:23;5.32;;;4.03;;
25846;SDS011;13676;50.168;8.568;2024-03-06T04:57:51;5.72;;;3.88;;
25846;SDS011;13676;50.168;8.568;2024-03-06T05:00:19;4.85;;;3.90;;
25846;SDS011;13676;50.168;8.568;2024-03-06T05:02:46;6.47;;;3.85;;
25846;SDS011;13676;50.168;8.568;2024-03-06T05:05:14;5.55;;;3.90;;
25846;SDS011;13676;50.168;8.568;2024-03-06T05:07:41;6.47;;;4.10;;
25846;SDS011;13676;50.168;8.568;2024-03-06T05:10:07;5.30;;;3.92;;
25846;SDS011;13676;50.168;8.568;2024-03-06T05:12:34;5.63;;;4.18;;
25846;SDS011;13676;50.168;8.568;2024-03-06T05:15:00;5.68;;;4.35;;
25846;SDS011;13676;50.168;8.568;2024-03-06T05:17:26;7.22;;;4.00;;
25846;SDS011;13676;50.168;8.568;2024-03-06T05:19:53;8.48;;;4.15;;
25846;SDS011;13676;50.168;8.568;2024-03-06T05:22:19;5.88;;;4.20;;
25846;SDS011;13676;50.168;8.568;2024-03-06T05:24:45;6.85;;;4.40;;
25846;SDS011;13676;50.168;8.568;2024-03-06T05:27:10;6.43;;;4.88;;
25846;SDS011;13676;50.168;8.568;2024-03-06T05:29:38;7.28;;;4.80;;
25846;SDS011;13676;50.168;8.568;2024-03-06T05:32:05;8.25;;;4.53;;
25846;SDS011;13676;50.168;8.568;2024-03-06T05:34:33;5.23;;;4.17;;
25846;SDS011;13676;50.168;8.568;2024-03-06T05:36:59;6.83;;;4.37;;
25846;SDS011;13676;50.168;8.568;2024-03-06T05:39:26;6.60;;;4.93;;
25846;SDS011;13676;50.168;8.568;2024-03-06T05:41:51;7.30;;;4.97;;
25846;SDS011;13676;50.168;8.568;2024-03-06T05:44:19;6.57;;;4.60;;
25846;SDS011;13676;50.168;8.568;2024-03-06T05:46:47;7.28;;;4.93;;
25846;SDS011;13676;50.168;8.568;2024-03-06T05:49:13;6.65;;;5.07;;
25846;SDS011;13676;50.168;8.568;2024-03-06T05:51:39;6.95;;;4.60;;
25846;SDS011;13676;50.168;8.568;2024-03-06T05:54:07;7.18;;;5.00;;
25846;SDS011;13676;50.168;8.568;2024-03-06T05:56:35;7.10;;;5.35;;
25846;SDS011;13676;50.168;8.568;2024-03-06T05:59:01;8.65;;;5.40;;
25846;SDS011;13676;50.168;8.568;2024-03-06T06:01:33;8.25;;;5.68;;
25846;SDS011;13676;50.168;8.568;2024-03-06T06:03:59;6.85;;;4.82;;
25846;SDS011;13676;50.168;8.568;2024-03-06T06:06:25;9.02;;;5.40;;
25846;SDS011;13676;50.168;8.568;2024-03-06T06:08:51;9.60;;;5.35;;
25846;SDS011;13676;50.168;8.568;2024-03-06T06:11:16;10.10;;;5.90;;
25846;SDS011;13676;50.168;8.568;2024-03-06T06:13:42;9.35;;;6.13;;
25846;SDS011;13676;50.168;8.568;2024-03-06T06:16:07;9.50;;;5.88;;
25846;SDS011;13676;50.168;8.568;2024-03-06T06:18:34;8.90;;;5.30;;
25846;SDS011;13676;50.168;8.568;2024-03-06T06:21:01;8.02;;;6.00;;
25846;SDS011;13676;50.168;8.568;2024-03-06T06:23:32;10.27;;;5.70;;
25846;SDS011;13676;50.168;8.568;2024-03-06T06:25:58;9.98;;;6.20;;
25846;SDS011;13676;50.168;8.568;2024-03-06T06:28:25;7.15;;;5.55;;
25846;SDS011;13676;50.168;8.568;2024-03-06T06:30:50;8.82;;;6.22;;
25846;SDS011;13676;50.168;8.568;2024-03-06T06:33:18;9.35;;;6.03;;
25846;SDS011;13676;50.168;8.568;2024-03-06T06:35:45;8.15;;;5.63;;
25846;SDS011;13676;50.168;8.568;2024-03-06T06:38:12;10.70;;;6.47;;
25846;SDS011;13676;50.168;8.568;2024-03-06T06:40:39;9.10;;;6.80;;
25846;SDS011;13676;50.168;8.568;2024-03-06T06:43:08;8.20;;;6.32;;
25846;SDS011;13676;50.168;8.568;2024-03-06T06:45:34;7.82;;;6.47;;
25846;SDS011;13676;50.168;8.568;2024-03-06T06:48:03;9.02;;;6.25;;
25846;SDS011;13676;50.168;8.568;2024-03-06T06:50:28;9.55;;;6.55;;
25846;SDS011;13676;50.168;8.568;2024-03-06T06:52:54;8.07;;;5.65;;
25846;SDS011;13676;50.168;8.568;2024-03-06T06:55:19;8.30;;;5.97;;
25846;SDS011;13676;50.168;8.568;2024-03-06T06:57:48;10.20;;;6.25;;
25846;SDS011;13676;50.168;8.568;2024-03-06T07:00:14;9.65;;;5.60;;
25846;SDS011;13676;50.168;8.568;2024-03-06T07:02:43;10.50;;;6.03;;
25846;SDS011;13676;50.168;8.568;2024-03-06T07:05:10;8.98;;;6.20;;
25846;SDS011;13676;50.168;8.568;2024-03-06T07:07:36;8.98;;;6.30;;
25846;SDS011;13676;50.168;8.568;2024-03-06T07:10:02;8.68;;;6.45;;
25846;SDS011;13676;50.168;8.568;2024-03-06T07:12:29;9.10;;;6.60;;
25846;SDS011;13676;50.168;8.568;2024-03-06T07:14:55;9.05;;;6.28;;
25846;SDS011;13676;50.168;8.568;2024-03-06T07:17:30;9.57;;;6.68;;
25846;SDS011;13676;50.168;8.568;2024-03-06T07:19:55;8.43;;;6.53;;
25846;SDS011;13676;50.168;8.568;2024-03-06T07:22:21;9.40;;;6.25;;
25846;SDS011;13676;50.168;8.568;2024-03-06T07:24:46;8.50;;;5.72;;
25846;SDS011;13676;50.168;8.568;2024-03-06T07:27:12;9.32;;;6.28;;
25846;SDS011;13676;50.168;8.568;2024-03-06T07:29:37;8.23;;;5.93;;
25846;SDS011;13676;50.168;8.568;2024-03-06T07:32:03;11.10;;;6.28;;
25846;SDS011;13676;50.168;8.568;2024-03-06T07:34:30;16.75;;;13.23;;
25846;SDS011;13676;50.168;8.568;2024-03-06T07:36:56;18.40;;;13.27;;
25846;SDS011;13676;50.168;8.568;2024-03-06T07:39:23;13.70;;;10.38;;
25846;SDS011;13676;50.168;8.568;2024-03-06T07:41:49;14.20;;;9.65;;
25846;SDS011;13676;50.168;8.568;2024-03-06T07:44:14;13.43;;;9.63;;
25846;SDS011;13676;50.168;8.568;2024-03-06T07:46:40;12.68;;;8.68;;
25846;SDS011;13676;50.168;8.568;2024-03-06T07:49:05;11.32;;;8.32;;
25846;SDS011;13676;50.168;8.568;2024-03-06T07:51:34;14.50;;;8.93;;
25846;SDS011;13676;50.168;8.568;2024-03-06T07:54:02;13.25;;;8.55;;
25846;SDS011;13676;50.168;8.568;2024-03-06T07:56:29;11.30;;;8.75;;
25846;SDS011;13676;50.168;8.568;2024-03-06T07:58:56;12.27;;;8.75;;
25846;SDS011;13676;50.168;8.568;2024-03-06T08:01:22;15.57;;;9.43;;
25846;SDS011;13676;50.168;8.568;2024-03-06T08:03:47;12.27;;;9.52;;
25846;SDS011;13676;50.168;8.568;2024-03-06T08:06:13;12.63;;;8.63;;
25846;SDS011;13676;50.168;8.568;2024-03-06T08:08:42;14.90;;;10.23;;
25846;SDS011;13676;50.168;8.568;2024-03-06T08:11:10;11.90;;;9.45;;
25846;SDS011;13676;50.168;8.568;2024-03-06T08:13:37;12.50;;;9.10;;
25846;SDS011;13676;50.168;8.568;2024-03-06T08:16:02;15.25;;;10.05;;
25846;SDS011;13676;50.168;8.568;2024-03-06T08:18:31;17.48;;;10.95;;
25846;SDS011;13676;50.168;8.568;2024-03-06T08:21:01;16.87;;;11.90;;
25846;SDS011;13676;50.168;8.568;2024-03-06T08:23:28;18.85;;;12.20;;
25846;SDS011;13676;50.168;8.568;2024-03-06T08:25:54;19.23;;;13.38;;
25846;SDS011;13676;50.168;8.568;2024-03-06T08:28:20;19.15;;;13.63;;
25846;SDS011;13676;50.168;8.568;2024-03-06T08:30:52;17.73;;;12.93;;
25846;SDS011;13676;50.168;8.568;2024-03-06T08:33:18;22.20;;;14.25;;
25846;SDS011;13676;50.168;8.568;2024-03-06T08:35:46;23.42;;;15.13;;
25846;SDS011;13676;50.168;8.568;2024-03-06T08:38:11;26.55;;;15.85;;
25846;SDS011;13676;50.168;8.568;2024-03-06T08:40:37;28.77;;;17.25;;
25846;SDS011;13676;50.168;8.568;2024-03-06T08:43:03;27.73;;;16.15;;
25846;SDS011;13676;50.168;8.568;2024-03-06T08:45:29;22.23;;;14.32;;
25846;SDS011;13676;50.168;8.568;2024-03-06T08:47:55;19.30;;;13.68;;
25846;SDS011;13676;50.168;8.568;2024-03-06T08:50:20;21.60;;;15.15;;
25846;SDS011;13676;50.168;8.568;2024-03-06T08:52:46;21.77;;;14.75;;
25846;SDS011;13676;50.168;8.568;2024-03-06T08:55:12;19.80;;;13.43;;
25846;SDS011;13676;50.168;8.568;2024-03-06T08:57:38;24.17;;;16.83;;
25846;SDS011;13676;50.168;8.568;2024-03-06T09:00:04;25.88;;;17.17;;
25846;SDS011;13676;50.168;8.568;2024-03-06T09:02:35;28.98;;;19.05;;
25846;SDS011;13676;50.168;8.568;2024-03-06T09:05:04;29.48;;;19.58;;
25846;SDS011;13676;50.168;8.568;2024-03-06T09:07:30;25.15;;;18.08;;
25846;SDS011;13676;50.168;8.568;2024-03-06T09:09:56;33.05;;;23.58;;
25846;SDS011;13676;50.168;8.568;2024-03-06T09:12:22;29.30;;;20.42;;
25846;SDS011;13676;50.168;8.568;2024-03-06T09:14:49;26.98;;;18.55;;
25846;SDS011;13676;50.168;8.568;2024-03-06T09:17:15;27.90;;;18.17;;
25846;SDS011;13676;50.168;8.568;2024-03-06T09:19:41;30.77;;;21.05;;
25846;SDS011;13676;50.168;8.568;2024-03-06T09:22:06;34.65;;;22.75;;
25846;SDS011;13676;50.168;8.568;2024-03-06T09:24:32;35.47;;;22.88;;
25846;SDS011;13676;50.168;8.568;2024-03-06T09:27:01;35.55;;;23.65;;
25846;SDS011;13676;50.168;8.568;2024-03-06T09:29:27;34.03;;;23.90;;
25846;SDS011;13676;50.168;8.568;2024-03-06T09:31:54;35.78;;;24.45;;
25846;SDS011;13676;50.168;8.568;2024-03-06T09:34:19;37.08;;;24.30;;
25846;SDS011;13676;50.168;8.568;2024-03-06T09:36:48;37.13;;;25.33;;
25846;SDS011;13676;50.168;8.568;2024-03-06T09:39:16;44.10;;;28.60;;
25846;SDS011;13676;50.168;8.568;2024-03-06T09:41:44;41.22;;;28.50;;
25846;SDS011;13676;50.168;8.568;2024-03-06T09:44:11;41.72;;;28.63;;
25846;SDS011;13676;50.168;8.568;2024-03-06T09:46:37;42.47;;;30.63;;
25846;SDS011;13676;50.168;8.568;2024-03-06T09:49:03;43.58;;;28.38;;
25846;SDS011;13676;50.168;8.568;2024-03-06T09:51:28;45.03;;;29.63;;
25846;SDS011;13676;50.168;8.568;2024-03-06T09:53:55;41.73;;;28.97;;
25846;SDS011;13676;50.168;8.568;2024-03-06T09:56:22;38.50;;;27.42;;
25846;SDS011;13676;50.168;8.568;2024-03-06T09:58:48;36.92;;;26.42;;
25846;SDS011;13676;50.168;8.568;2024-03-06T10:01:15;37.60;;;25.27;;
25846;SDS011;13676;50.168;8.568;2024-03-06T10:03:41;34.08;;;23.02;;
25846;SDS011;13676;50.168;8.568;2024-03-06T10:06:09;35.50;;;24.65;;
25846;SDS011;13676;50.168;8.568;2024-03-06T10:08:36;34.42;;;21.50;;
25846;SDS011;13676;50.168;8.568;2024-03-06T10:11:06;32.97;;;22.35;;
25846;SDS011;13676;50.168;8.568;2024-03-06T10:13:33;28.63;;;20.60;;
25846;SDS011;13676;50.168;8.568;2024-03-06T10:16:01;29.90;;;20.55;;
25846;SDS011;13676;50.168;8.568;2024-03-06T10:18:29;29.48;;;21.52;;
25846;SDS011;13676;50.168;8.568;2024-03-06T10:20:56;30.58;;;21.42;;
25846;SDS011;13676;50.168;8.568;2024-03-06T10:23:22;31.58;;;22.08;;
25846;SDS011;13676;50.168;8.568;2024-03-06T10:25:50;30.65;;;22.17;;
25846;SDS011;13676;50.168;8.568;2024-03-06T10:28:20;33.72;;;22.10;;
25846;SDS011;13676;50.168;8.568;2024-03-06T10:30:47;28.65;;;20.10;;
25846;SDS011;13676;50.168;8.568;2024-03-06T10:33:13;34.58;;;23.95;;
25846;SDS011;13676;50.168;8.568;2024-03-06T10:35:43;31.27;;;23.73;;
25846;SDS011;13676;50.168;8.568;2024-03-06T10:38:09;35.75;;;23.75;;
25846;SDS011;13676;50.168;8.568;2024-03-06T10:40:39;33.67;;;23.23;;
25846;SDS011;13676;50.168;8.568;2024-03-06T10:43:08;30.02;;;21.42;;
25846;SDS011;13676;50.168;8.568;2024-03-06T10:45:50;33.22;;;23.60;;
25846;SDS011;13676;50.168;8.568;2024-03-06T10:48:17;28.02;;;19.30;;
25846;SDS011;13676;50.168;8.568;2024-03-06T10:50:44;21.25;;;15.57;;
25846;SDS011;13676;50.168;8.568;2024-03-06T10:53:11;23.05;;;14.80;;
25846;SDS011;13676;50.168;8.568;2024-03-06T10:55:37;29.85;;;20.90;;
25846;SDS011;13676;50.168;8.568;2024-03-06T10:58:05;28.77;;;19.63;;
25846;SDS011;13676;50.168;8.568;2024-03-06T11:00:33;27.40;;;19.90;;
25846;SDS011;13676;50.168;8.568;2024-03-06T11:03:00;23.38;;;16.52;;
25846;SDS011;13676;50.168;8.568;2024-03-06T11:05:28;22.33;;;16.80;;
25846;SDS011;13676;50.168;8.568;2024-03-06T11:07:54;20.70;;;15.40;;
25846;SDS011;13676;50.168;8.568;2024-03-06T11:10:33;19.65;;;14.82;;
25846;SDS011;13676;50.168;8.568;2024-03-06T11:13:00;21.88;;;15.70;;
25846;SDS011;13676;50.168;8.568;2024-03-06T11:15:26;25.13;;;17.48;;
25846;SDS011;13676;50.168;8.568;2024-03-06T11:17:53;19.83;;;14.95;;
25846;SDS011;13676;50.168;8.568;2024-03-06T11:20:21;22.20;;;15.98;;
25846;SDS011;13676;50.168;8.568;2024-03-06T11:28:16;22.75;;;16.52;;
25846;SDS011;13676;50.168;8.568;2024-03-06T11:31:25;22.23;;;16.23;;
25846;SDS011;13676;50.168;8.568;2024-03-06T11:41:45;26.48;;;17.73;;
25846;SDS011;13676;50.168;8.568;2024-03-06T11:44:14;31.92;;;21.60;;
25846;SDS011;13676;50.168;8.568;2024-03-06T11:49:15;28.02;;;18.73;;
25846;SDS011;13676;50.168;8.568;2024-03-06T11:51:48;25.02;;;18.10;;
25846;SDS011;13676;50.168;8.568;2024-03-06T11:54:14;30.25;;;21.08;;
25846;SDS011;13676;50.168;8.568;2024-03-06T11:56:40;29.08;;;20.88;;
25846;SDS011;13676;50.168;8.568;2024-03-06T11:59:06;30.35;;;21.67;;
25846;SDS011;13676;50.168;8.568;2024-03-06T12:01:36;35.40;;;20.55;;
25846;SDS011;13676;50.168;8.568;2024-03-06T12:04:02;32.53;;;22.90;;
25846;SDS011;13676;50.168;8.568;2024-03-06T12:08:55;32.53;;;22.48;;
25846;SDS011;13676;50.168;8.568;2024-03-06T12:11:20;29.40;;;19.35;;
25846;SDS011;13676;50.168;8.568;2024-03-06T12:13:49;21.73;;;14.80;;
25846;SDS011;13676;50.168;8.568;2024-03-06T12:16:15;18.27;;;12.98;;
25846;SDS011;13676;50.168;8.568;2024-03-06T12:18:42;24.20;;;17.27;;
25846;SDS011;13676;50.168;8.568;2024-03-06T12:21:07;24.15;;;16.45;;
25846;SDS011;13676;50.168;8.568;2024-03-06T12:23:32;24.42;;;17.17;;
25846;SDS011;13676;50.168;8.568;2024-03-06T12:28:36;23.83;;;15.60;;
25846;SDS011;13676;50.168;8.568;2024-03-06T12:31:03;19.75;;;13.73;;
25846;SDS011;13676;50.168;8.568;2024-03-06T12:33:29;20.38;;;13.75;;
25846;SDS011;13676;50.168;8.568;2024-03-06T12:36:04;23.27;;;15.25;;
25846;SDS011;13676;50.168;8.568;2024-03-06T12:38:33;22.85;;;14.75;;
25846;SDS011;13676;50.168;8.568;2024-03-06T12:40:59;20.40;;;14.43;;
25846;SDS011;13676;50.168;8.568;2024-03-06T12:43:25;19.08;;;14.15;;
25846;SDS011;13676;50.168;8.568;2024-03-06T12:45:51;19.92;;;14.35;;
25846;SDS011;13676;50.168;8.568;2024-03-06T12:48:20;20.25;;;13.77;;
25846;SDS011;13676;50.168;8.568;2024-03-06T12:50:46;19.88;;;14.13;;
25846;SDS011;13676;50.168;8.568;2024-03-06T12:53:16;17.42;;;13.07;;
25846;SDS011;13676;50.168;8.568;2024-03-06T12:55:46;20.95;;;14.85;;
25846;SDS011;13676;50.168;8.568;2024-03-06T12:58:13;20.13;;;13.93;;
25846;SDS011;13676;50.168;8.568;2024-03-06T13:00:38;22.55;;;15.68;;
25846;SDS011;13676;50.168;8.568;2024-03-06T13:03:04;22.70;;;14.65;;
25846;SDS011;13676;50.168;8.568;2024-03-06T13:05:34;21.50;;;15.13;;
25846;SDS011;13676;50.168;8.568;2024-03-06T13:07:59;26.95;;;16.95;;
25846;SDS011;13676;50.168;8.568;2024-03-06T13:10:25;31.00;;;21.10;;
25846;SDS011;13676;50.168;8.568;2024-03-06T13:12:50;27.67;;;19.30;;
25846;SDS011;13676;50.168;8.568;2024-03-06T13:15:16;26.10;;;18.58;;
25846;SDS011;13676;50.168;8.568;2024-03-06T13:17:41;27.45;;;20.60;;
25846;SDS011;13676;50.168;8.568;2024-03-06T13:20:07;26.38;;;19.02;;
25846;SDS011;13676;50.168;8.568;2024-03-06T13:22:39;23.52;;;17.25;;
25846;SDS011;13676;50.168;8.568;2024-03-06T13:25:04;25.55;;;15.70;;
25846;SDS011;13676;50.168;8.568;2024-03-06T13:27:31;23.10;;;17.98;;
25846;SDS011;13676;50.168;8.568;2024-03-06T13:29:57;26.73;;;18.65;;
25846;SDS011;13676;50.168;8.568;2024-03-06T13:32:23;28.08;;;19.75;;
25846;SDS011;13676;50.168;8.568;2024-03-06T13:34:48;25.88;;;18.80;;
25846;SDS011;13676;50.168;8.568;2024-03-06T13:37:15;25.95;;;18.08;;
25846;SDS011;13676;50.168;8.568;2024-03-06T13:39:41;27.02;;;18.17;;
25846;SDS011;13676;50.168;8.568;2024-03-06T13:42:07;27.13;;;18.42;;
25846;SDS011;13676;50.168;8.568;2024-03-06T13:44:35;23.58;;;16.90;;
25846;SDS011;13676;50.168;8.568;2024-03-06T13:49:36;26.17;;;17.65;;
25846;SDS011;13676;50.168;8.568;2024-03-06T13:52:06;29.30;;;19.67;;
25846;SDS011;13676;50.168;8.568;2024-03-06T13:54:41;30.83;;;21.20;;
25846;SDS011;13676;50.168;8.568;2024-03-06T13:57:07;32.45;;;21.38;;
25846;SDS011;13676;50.168;8.568;2024-03-06T13:59:34;30.30;;;21.67;;
25846;SDS011;13676;50.168;8.568;2024-03-06T14:02:00;32.00;;;23.15;;
25846;SDS011;13676;50.168;8.568;2024-03-06T14:04:27;28.58;;;20.63;;
25846;SDS011;13676;50.168;8.568;2024-03-06T14:06:54;30.88;;;20.85;;
25846;SDS011;13676;50.168;8.568;2024-03-06T14:09:21;28.15;;;19.33;;
25846;SDS011;13676;50.168;8.568;2024-03-06T14:11:48;26.33;;;19.33;;
25846;SDS011;13676;50.168;8.568;2024-03-06T14:14:15;29.73;;;19.17;;
25846;SDS011;13676;50.168;8.568;2024-03-06T14:16:40;26.15;;;19.35;;
25846;SDS011;13676;50.168;8.568;2024-03-06T14:19:07;25.73;;;18.10;;
25846;SDS011;13676;50.168;8.568;2024-03-06T14:21:33;29.05;;;19.27;;
25846;SDS011;13676;50.168;8.568;2024-03-06T14:23:59;22.70;;;15.85;;
25846;SDS011;13676;50.168;8.568;2024-03-06T14:26:25;26.75;;;18.40;;
25846;SDS011;13676;50.168;8.568;2024-03-06T14:28:52;25.07;;;17.83;;
25846;SDS011;13676;50.168;8.568;2024-03-06T14:31:18;22.85;;;15.40;;
25846;SDS011;13676;50.168;8.568;2024-03-06T14:33:43;25.67;;;16.85;;
25846;SDS011;13676;50.168;8.568;2024-03-06T14:36:08;22.00;;;15.30;;
25846;SDS011;13676;50.168;8.568;2024-03-06T14:38:34;23.42;;;16.88;;
25846;SDS011;13676;50.168;8.568;2024-03-06T14:41:00;23.08;;;15.75;;
25846;SDS011;13676;50.168;8.568;2024-03-06T14:43:25;20.98;;;15.68;;
25846;SDS011;13676;50.168;8.568;2024-03-06T14:45:51;22.17;;;16.00;;
25846;SDS011;13676;50.168;8.568;2024-03-06T14:48:17;23.00;;;16.38;;
25846;SDS011;13676;50.168;8.568;2024-03-06T14:50:43;21.67;;;16.55;;
25846;SDS011;13676;50.168;8.568;2024-03-06T14:53:08;23.02;;;17.00;;
25846;SDS011;13676;50.168;8.568;2024-03-06T14:55:34;22.20;;;17.10;;
25846;SDS011;13676;50.168;8.568;2024-03-06T14:58:00;25.38;;;16.58;;
25846;SDS011;13676;50.168;8.568;2024-03-06T15:00:25;25.10;;;17.38;;
25846;SDS011;13676;50.168;8.568;2024-03-06T15:02:51;28.10;;;17.50;;